createdAt,value
2019-04-25T00:01:46.910Z,99755.30
2019-04-25T00:04:21.577Z,99753.43
2019-04-25T00:06:55.997Z,99741.00
2019-04-25T00:09:37.524Z,99740.02
2019-04-25T00:12:12.138Z,99748.56
2019-04-25T00:14:48.235Z,99756.80
2019-04-25T00:17:23.279Z,99759.64
2019-04-25T00:20:01.579Z,99761.20
2019-04-25T00:22:53.771Z,99754.48
2019-04-25T00:25:53.243Z,99750.64
2019-04-25T00:28:37.304Z,99745.77
2019-04-25T00:31:11.929Z,99747.42
2019-04-25T00:33:47.312Z,99751.16
2019-04-25T00:36:21.763Z,99748.14
2019-04-25T00:38:53.391Z,99745.92
2019-04-25T00:41:25.973Z,99753.30
2019-04-25T00:43:57.805Z,99754.95
2019-04-25T00:46:30.164Z,99768.41
2019-04-25T00:49:03.341Z,99766.64
2019-04-25T00:51:34.688Z,99757.23
2019-04-25T00:54:07.884Z,99757.34
2019-04-25T00:56:46.071Z,99756.38
2019-04-25T00:59:22.862Z,99759.89
2019-04-25T01:02:21.447Z,99762.60
2019-04-25T01:04:57.126Z,99766.45
2019-04-25T01:07:29.018Z,99762.27
2019-04-25T01:10:02.632Z,99762.35
2019-04-25T01:12:35.118Z,99771.69
2019-04-25T01:15:11.481Z,99773.23
2019-04-25T01:17:43.411Z,99778.25
2019-04-25T01:20:16.605Z,99783.45
2019-04-25T01:22:51.426Z,99619.08
2019-04-25T01:25:40.846Z,99782.52
2019-04-25T01:28:07.536Z,99787.69
2019-04-25T01:30:40.399Z,99790.68
2019-04-25T01:33:13.533Z,99796.96
2019-04-25T01:36:00.566Z,99637.50
2019-04-25T01:38:50.946Z,99803.97
2019-04-25T01:41:44.130Z,99794.06
2019-04-25T01:44:24.119Z,99793.75
2019-04-25T01:46:58.440Z,99798.93
2019-04-25T01:49:29.969Z,99798.80
2019-04-25T01:52:03.706Z,99798.19
2019-04-25T01:54:43.834Z,99800.22
2019-04-25T01:57:15.330Z,99801.97
2019-04-25T01:59:46.312Z,99797.66
2019-04-25T02:02:21.311Z,99804.50
2019-04-25T02:04:55.329Z,99807.26
2019-04-25T02:07:33.385Z,99813.16
2019-04-25T02:10:09.222Z,99818.96
2019-04-25T02:12:47.952Z,99821.12
2019-04-25T02:15:29.407Z,99808.60
2019-04-25T02:18:01.821Z,99806.49
2019-04-25T02:20:37.617Z,99810.22
2019-04-25T02:23:10.859Z,99813.52
2019-04-25T02:25:44.281Z,99808.48
2019-04-25T02:28:17.867Z,99808.41
2019-04-25T02:30:50.546Z,99812.17
2019-04-25T02:33:24.237Z,99811.97
2019-04-25T02:35:59.373Z,99816.25
2019-04-25T02:38:30.433Z,99656.47
2019-04-25T02:41:08.376Z,99814.00
2019-04-25T02:43:39.520Z,99813.53
2019-04-25T02:46:36.844Z,99810.50
2019-04-25T02:49:33.041Z,99807.60
2019-04-25T02:52:13.060Z,99812.81
2019-04-25T02:54:44.876Z,99817.34
2019-04-25T02:57:17.165Z,99817.45
2019-04-25T02:59:48.167Z,99806.10
2019-04-25T03:02:19.072Z,99808.30
2019-04-25T03:04:50.155Z,99812.83
2019-04-25T03:07:24.314Z,99826.16
2019-04-25T03:09:55.362Z,99825.33
2019-04-25T03:12:33.175Z,99827.03
2019-04-25T03:15:07.179Z,99827.19
2019-04-25T03:17:38.410Z,99825.68
2019-04-25T03:20:32.152Z,99823.50
2019-04-25T03:23:14.196Z,99822.83
2019-04-25T03:25:44.754Z,99822.31
2019-04-25T03:28:16.131Z,99825.33
2019-04-25T03:30:47.311Z,99827.19
2019-04-25T03:33:19.695Z,99832.73
2019-04-25T03:35:53.944Z,99832.51
2019-04-25T03:38:28.595Z,99827.68
2019-04-25T03:41:00.183Z,99833.41
2019-04-25T03:43:30.997Z,99828.00
2019-04-25T03:46:02.481Z,99839.79
2019-04-25T03:48:36.497Z,99834.73
2019-04-25T03:51:07.995Z,99843.86
2019-04-25T03:57:23.256Z,99846.72
2019-04-25T03:59:57.027Z,99703.59
2019-04-25T04:02:26.987Z,99839.97
2019-04-25T04:04:58.093Z,99848.00
2019-04-25T04:07:30.537Z,99846.50
2019-04-25T04:10:01.245Z,99845.98
2019-04-25T04:12:31.666Z,99842.97
2019-04-25T04:15:03.709Z,99847.55
2019-04-25T04:17:53.641Z,99847.55
2019-04-25T04:20:43.551Z,99853.61
2019-04-25T04:23:18.591Z,99864.86
2019-04-25T04:25:48.886Z,99856.00
2019-04-25T04:28:20.600Z,99863.44
2019-04-25T04:30:51.023Z,99868.45
2019-04-25T04:33:29.532Z,99870.58
2019-04-25T04:35:52.120Z,99875.59
2019-04-25T04:38:21.850Z,99860.70
2019-04-25T04:40:51.428Z,99870.47
2019-04-25T04:43:21.018Z,99868.33
2019-04-25T04:45:50.633Z,99877.78
2019-04-25T04:48:20.212Z,99877.81
2019-04-25T04:50:49.857Z,99882.48
2019-04-25T04:53:19.440Z,99880.56
2019-04-25T04:55:49.048Z,99883.44
2019-04-25T04:58:19.253Z,99883.72
2019-04-25T05:00:48.901Z,99877.41
2019-04-25T05:03:40.214Z,99875.23
2019-04-25T05:06:31.526Z,99883.83
2019-04-25T05:09:09.575Z,99893.70
2019-04-25T05:11:39.238Z,99901.71
2019-04-25T05:14:08.898Z,99901.29
2019-04-25T05:16:38.503Z,99899.94
2019-04-25T05:19:08.316Z,99902.84
2019-04-25T05:21:38.027Z,99851.13
2019-04-25T05:24:07.775Z,99850.00
2019-04-25T05:26:37.418Z,99896.27
2019-04-25T05:29:07.042Z,99896.41
2019-04-25T05:31:48.804Z,99901.89
2019-04-25T05:34:18.429Z,99912.46
2019-04-25T05:36:48.083Z,99908.70
2019-04-25T05:39:19.172Z,99908.44
2019-04-25T05:42:10.860Z,99913.50
2019-04-25T05:44:40.677Z,99915.85
2019-04-25T05:47:10.243Z,99911.56
2019-04-25T05:49:39.848Z,99916.66
2019-04-25T05:52:09.499Z,99911.66
2019-04-25T05:54:39.164Z,99918.16
2019-04-25T05:57:09.170Z,99910.39
2019-04-25T05:59:38.762Z,99909.69
2019-04-25T06:02:08.353Z,99911.17
2019-04-25T06:04:37.997Z,99908.06
2019-04-25T06:07:07.723Z,99911.48
2019-04-25T06:09:56.255Z,99914.30
2019-04-25T06:12:40.585Z,99913.25
2019-04-25T06:15:11.005Z,99901.95
2019-04-25T06:17:59.495Z,99900.12
2019-04-25T06:20:34.302Z,99896.61
2019-04-25T06:23:26.843Z,99906.15
2019-04-25T06:25:56.437Z,99914.88
2019-04-25T06:28:28.282Z,99914.00
2019-04-25T06:30:57.846Z,99916.80
2019-04-25T06:33:27.586Z,99914.26
2019-04-25T06:35:57.205Z,99747.81
2019-04-25T06:38:27.505Z,99916.37
2019-04-25T06:40:57.945Z,99925.73
2019-04-25T06:43:28.026Z,99918.36
2019-04-25T06:46:31.900Z,99919.77
2019-04-25T06:49:20.363Z,99912.66
2019-04-25T06:51:51.342Z,99918.23
2019-04-25T06:54:21.928Z,99924.58
2019-04-25T06:56:53.548Z,99920.45
2019-04-25T06:59:26.000Z,99919.68
2019-04-25T07:01:56.203Z,99916.72
2019-04-25T07:04:26.967Z,99905.22
2019-04-25T07:07:09.356Z,99912.55
2019-04-25T07:09:30.863Z,99909.89
2019-04-25T07:12:03.567Z,99914.66
2019-04-25T07:14:36.758Z,99916.20
2019-04-25T07:17:05.773Z,99925.53
2019-04-25T07:19:35.644Z,99922.56
2019-04-25T07:22:06.069Z,99921.50
2019-04-25T07:24:35.777Z,99923.64
2019-04-25T07:27:35.618Z,99921.03
2019-04-25T07:30:42.114Z,99909.95
2019-04-25T07:33:16.752Z,99903.46
2019-04-25T07:35:46.918Z,99895.80
2019-04-25T07:38:17.043Z,99900.47
2019-04-25T07:40:48.757Z,99903.34
2019-04-25T07:43:19.613Z,99903.20
2019-04-25T07:45:53.521Z,99910.60
2019-04-25T07:48:26.694Z,99908.24
2019-04-25T07:50:57.056Z,99908.58
2019-04-25T07:53:28.121Z,99904.64
2019-04-25T07:55:58.560Z,99900.48
2019-04-25T07:58:49.203Z,99901.08
2019-04-25T08:01:15.016Z,99899.45
2019-04-25T08:03:45.194Z,99804.42
2019-04-25T08:06:16.984Z,99889.45
2019-04-25T08:08:49.783Z,99891.69
2019-04-25T08:11:23.745Z,99878.77
2019-04-25T08:14:21.724Z,99736.59
2019-04-25T08:16:56.337Z,99871.21
2019-04-25T08:19:31.158Z,99862.13
2019-04-25T08:22:04.399Z,99855.44
2019-04-25T08:24:37.298Z,99859.39
2019-04-25T08:27:08.039Z,99858.86
2019-04-25T08:29:39.608Z,99863.16
2019-04-25T08:32:09.093Z,99864.41
2019-04-25T08:34:38.733Z,99850.48
2019-04-25T08:37:18.234Z,99854.25
2019-04-25T08:39:39.887Z,99853.39
2019-04-25T08:42:09.498Z,99855.05
2019-04-25T08:44:39.276Z,99856.98
2019-04-25T08:47:09.052Z,99860.58
2019-04-25T08:49:49.479Z,99850.22
2019-04-25T08:52:19.251Z,99856.08
2019-04-25T08:55:10.516Z,99858.40
2019-04-25T08:58:11.103Z,99844.68
2019-04-25T09:01:01.399Z,99838.54
2019-04-25T09:03:38.819Z,99834.66
2019-04-25T09:06:09.218Z,99838.30
2019-04-25T09:08:39.445Z,99841.30
2019-04-25T09:11:09.152Z,99831.10
2019-04-25T09:13:39.563Z,99822.77
2019-04-25T09:16:09.307Z,99821.40
2019-04-25T09:18:38.934Z,99812.95
2019-04-25T09:21:08.574Z,99812.59
2019-04-25T09:23:38.173Z,99812.90
2019-04-25T09:26:07.911Z,99809.91
2019-04-25T09:28:38.949Z,99797.53
2019-04-25T09:31:08.931Z,99800.66
2019-04-25T09:33:39.161Z,99796.27
2019-04-25T09:36:08.903Z,99792.36
2019-04-25T09:38:38.866Z,99792.13
2019-04-25T09:41:08.661Z,99788.93
2019-04-25T09:43:40.344Z,99778.62
2019-04-25T09:46:14.923Z,99779.00
2019-04-25T09:49:07.095Z,99777.05
2019-04-25T09:51:40.204Z,99771.95
2019-04-25T09:54:27.365Z,99769.28
2019-04-25T09:57:03.665Z,99766.79
2019-04-25T09:59:33.508Z,99759.72
2019-04-25T10:02:05.724Z,99762.84
2019-04-25T10:04:35.306Z,99758.77
2019-04-25T10:07:05.100Z,99747.52
2019-04-25T10:09:34.720Z,99740.33
2019-04-25T10:12:04.332Z,99739.97
2019-04-25T10:15:07.157Z,99740.20
2019-04-25T10:17:37.717Z,99743.16
2019-04-25T10:20:08.195Z,99737.02
2019-04-25T10:22:38.848Z,99738.74
2019-04-25T10:25:09.491Z,99736.16
2019-04-25T10:27:39.339Z,99730.99
2019-04-25T10:30:19.037Z,99715.73
2019-04-25T10:32:46.281Z,99710.91
2019-04-25T10:35:16.390Z,99707.89
2019-04-25T10:37:46.606Z,99710.95
2019-04-25T10:40:16.892Z,99706.76
2019-04-25T10:42:49.062Z,99712.02
2019-04-25T10:45:23.160Z,99706.94
2019-04-25T10:47:49.967Z,99700.77
2019-04-25T10:50:19.574Z,99693.49
2019-04-25T10:52:49.697Z,99693.14
2019-04-25T10:55:19.999Z,99704.34
2019-04-25T10:57:49.920Z,99702.22
2019-04-25T11:00:29.919Z,99692.84
2019-04-25T11:03:06.140Z,99687.87
2019-04-25T11:05:38.513Z,99693.55
2019-04-25T11:08:08.355Z,99679.09
2019-04-25T11:10:38.336Z,99682.47
2019-04-25T11:13:07.936Z,99682.62
2019-04-25T11:15:38.446Z,99684.94
2019-04-25T11:18:08.562Z,99689.27
2019-04-25T11:20:40.214Z,99686.34
2019-04-25T11:23:10.092Z,99679.50
2019-04-25T11:25:40.625Z,99670.70
2019-04-25T11:28:11.672Z,99667.78
2019-04-25T11:30:45.223Z,99665.63
2019-04-25T11:33:14.486Z,99657.64
2019-04-25T11:35:47.515Z,99654.81
2019-04-25T11:38:21.020Z,99660.58
2019-04-25T11:41:03.862Z,99649.95
2019-04-25T11:43:35.648Z,99651.80
2019-04-25T11:46:05.594Z,99647.78
2019-04-25T11:48:36.379Z,99649.29
2019-04-25T11:51:07.161Z,99649.16
2019-04-25T11:53:36.763Z,99641.03
2019-04-25T11:56:06.480Z,99642.20
2019-04-25T11:58:36.167Z,99647.40
2019-04-25T12:01:06.088Z,99644.63
2019-04-25T12:03:35.744Z,99642.66
2019-04-25T12:06:06.047Z,99633.05
2019-04-25T12:08:36.080Z,99624.42
2019-04-25T12:11:05.949Z,99633.09
2019-04-25T12:13:37.489Z,99629.37
2019-04-25T12:16:07.222Z,99621.59
2019-04-25T12:18:36.826Z,99623.09
2019-04-25T12:21:06.593Z,99624.12
2019-04-25T12:23:36.231Z,99627.52
2019-04-25T12:26:06.079Z,99627.52
2019-04-25T12:28:35.908Z,99621.48
2019-04-25T12:31:05.683Z,99616.30
2019-04-25T12:33:35.374Z,99610.56
2019-04-25T12:36:05.038Z,99597.59
2019-04-25T12:38:35.432Z,99597.59
2019-04-25T12:41:05.157Z,99613.05
2019-04-25T12:43:36.448Z,99613.05
2019-04-25T12:46:12.129Z,99605.53
2019-04-25T12:48:43.116Z,99608.41
2019-04-25T12:51:13.508Z,99603.38
2019-04-25T12:53:43.821Z,99588.64
2019-04-25T12:56:13.517Z,99588.64
2019-04-25T12:58:43.548Z,99593.30
2019-04-25T13:01:13.482Z,99591.25
2019-04-25T13:03:43.953Z,99596.00
2019-04-25T13:06:14.015Z,99594.80
2019-04-25T13:08:44.853Z,99586.20
2019-04-25T13:11:14.681Z,99572.16
2019-04-25T13:13:44.378Z,99561.84
2019-04-25T13:16:14.220Z,99561.55
2019-04-25T13:18:43.838Z,99558.23
2019-04-25T13:21:17.133Z,99553.41
2019-04-25T13:23:46.874Z,99552.61
2019-04-25T13:26:18.246Z,99549.34
2019-04-25T13:29:07.790Z,99549.34
2019-04-25T13:32:01.056Z,99548.14
2019-04-25T13:34:36.728Z,99547.11
2019-04-25T13:37:08.985Z,99541.60
2019-04-25T13:39:41.079Z,99534.13
2019-04-25T13:42:11.966Z,99530.63
2019-04-25T13:44:42.225Z,99515.31
2019-04-25T13:47:14.121Z,99522.22
2019-04-25T13:49:47.235Z,99522.22
2019-04-25T13:52:18.781Z,99527.25
2019-04-25T13:54:50.974Z,99527.25
2019-04-25T13:57:21.814Z,99527.55
2019-04-25T13:59:54.147Z,99519.78
2019-04-25T14:02:24.908Z,99518.76
2019-04-25T14:04:55.594Z,99519.02
2019-04-25T14:07:25.519Z,99513.36
2019-04-25T14:09:57.489Z,99516.50
2019-04-25T14:12:30.208Z,99518.95
2019-04-25T14:15:01.526Z,99508.05
2019-04-25T14:17:44.742Z,99508.05
2019-04-25T14:20:27.960Z,99511.50
2019-04-25T14:22:58.800Z,99508.08
2019-04-25T14:25:29.801Z,99512.12
2019-04-25T14:28:01.500Z,99509.59
2019-04-25T14:30:32.632Z,99516.17
2019-04-25T14:33:04.889Z,99520.16
2019-04-25T14:35:36.690Z,99515.86
2019-04-25T14:38:07.478Z,99511.91
2019-04-25T14:40:38.149Z,99512.74
2019-04-25T14:43:09.640Z,99512.14
2019-04-25T14:45:44.809Z,99510.56
2019-04-25T14:48:12.499Z,99519.28
2019-04-25T14:50:44.688Z,99518.70
2019-04-25T14:53:16.017Z,99509.11
2019-04-25T14:56:04.015Z,99497.95
2019-04-25T14:58:37.204Z,99492.88
2019-04-25T15:01:08.933Z,99492.88
2019-04-25T15:03:41.881Z,99487.86
2019-04-25T15:06:13.341Z,99494.80
2019-04-25T15:08:45.489Z,99494.84
2019-04-25T15:11:17.365Z,99489.61
2019-04-25T15:13:47.533Z,99486.80
2019-04-25T15:16:19.569Z,99487.14
2019-04-25T15:18:50.022Z,99479.06
2019-04-25T15:21:21.134Z,99484.02
2019-04-25T15:23:59.927Z,99480.06
2019-04-25T15:26:27.656Z,99482.08
2019-04-25T15:28:59.518Z,99485.50
2019-04-25T15:31:32.208Z,99485.50
2019-04-25T15:34:03.856Z,99476.60
2019-04-25T15:36:57.569Z,99476.60
2019-04-25T15:39:59.559Z,99483.56
2019-04-25T15:42:49.008Z,99472.96
2019-04-25T15:45:47.211Z,99476.73
2019-04-25T15:48:17.806Z,99473.00
2019-04-25T15:50:51.444Z,99459.80
2019-04-25T15:53:21.423Z,99453.72
2019-04-25T15:55:51.943Z,99459.30
2019-04-25T15:58:25.308Z,99458.84
2019-04-25T16:00:56.734Z,99465.57
2019-04-25T16:03:28.180Z,99464.31
2019-04-25T16:05:58.962Z,99474.90
2019-04-25T16:08:29.463Z,99487.34
2019-04-25T16:10:59.336Z,99487.34
2019-04-25T16:13:30.632Z,99479.89
2019-04-25T16:16:00.988Z,99479.89
2019-04-25T16:18:31.994Z,99485.73
2019-04-25T16:21:04.165Z,99485.73
2019-04-25T16:23:34.480Z,99483.02
2019-04-25T16:26:07.538Z,99482.77
2019-04-25T16:28:38.691Z,99493.52
2019-04-25T16:31:10.457Z,99488.55
2019-04-25T16:33:42.122Z,99488.55
2019-04-25T16:36:12.510Z,99491.20
2019-04-25T16:38:42.554Z,99489.83
2019-04-25T16:41:15.576Z,99494.06
2019-04-25T16:43:50.057Z,99492.57
2019-04-25T16:46:22.069Z,99492.88
2019-04-25T16:48:52.189Z,99497.06
2019-04-25T16:51:26.209Z,99489.17
2019-04-25T16:53:56.043Z,99490.20
2019-04-25T16:56:25.967Z,99496.20
2019-04-25T16:58:55.816Z,99486.12
2019-04-25T17:01:25.530Z,99485.19
2019-04-25T17:03:55.207Z,99454.65
2019-04-25T17:06:25.217Z,99493.83
2019-04-25T17:08:54.924Z,99490.64
2019-04-25T17:11:24.689Z,99501.86
2019-04-25T17:14:12.773Z,99496.53
2019-04-25T17:17:19.621Z,99495.25
2019-04-25T17:19:58.353Z,99495.30
2019-04-25T17:22:28.770Z,99502.33
2019-04-25T17:25:03.729Z,99504.70
2019-04-25T17:27:34.921Z,99496.81
2019-04-25T17:30:05.809Z,99501.55
2019-04-25T17:32:54.547Z,99509.84
2019-04-25T17:36:01.853Z,99515.22
2019-04-25T17:38:40.678Z,99522.01
2019-04-25T17:41:11.164Z,99528.48
2019-04-25T17:43:41.835Z,99526.11
2019-04-25T17:46:14.481Z,99526.75
2019-04-25T17:48:44.184Z,99528.95
2019-04-25T17:51:14.542Z,99536.37
2019-04-25T17:53:44.912Z,99531.81
2019-04-25T17:56:14.814Z,99546.05
2019-04-25T17:58:44.695Z,99539.27
2019-04-25T18:01:19.473Z,99536.77
2019-04-25T18:03:49.264Z,99543.05
2019-04-25T18:06:19.022Z,99507.47
2019-04-25T18:08:48.839Z,99557.42
2019-04-25T18:11:19.188Z,99556.01
2019-04-25T18:13:48.827Z,99557.49
2019-04-25T18:16:27.547Z,99571.27
2019-04-25T18:19:16.244Z,99569.39
2019-04-25T18:21:46.273Z,99574.09
2019-04-25T18:24:35.229Z,99577.38
2019-04-25T18:27:20.081Z,99575.13
2019-04-25T18:29:50.353Z,99578.88
2019-04-25T18:32:20.865Z,99577.77
2019-04-25T18:35:22.973Z,99586.80
2019-04-25T18:38:00.182Z,99581.31
2019-04-25T18:40:51.565Z,99584.96
2019-04-25T18:43:31.715Z,99578.39
2019-04-25T18:46:06.636Z,99574.89
2019-04-25T18:48:36.989Z,99572.88
2019-04-25T18:51:07.291Z,99573.98
2019-04-25T18:53:54.935Z,99579.16
2019-04-25T18:56:49.409Z,99580.36
2019-04-25T18:59:41.583Z,99580.36
2019-04-25T19:02:42.738Z,99579.50
2019-04-25T19:05:27.822Z,99585.45
2019-04-25T19:07:58.605Z,99589.19
2019-04-25T19:10:28.859Z,99586.77
2019-04-25T19:13:11.824Z,99587.58
2019-04-25T19:15:30.284Z,99583.27
2019-04-25T19:18:03.919Z,99586.30
2019-04-25T19:20:34.310Z,99580.77
2019-04-25T19:23:04.117Z,99588.53
2019-04-25T19:25:34.125Z,99583.29
2019-04-25T19:28:04.750Z,99591.76
2019-04-25T19:30:34.485Z,99588.97
2019-04-25T19:33:07.431Z,99597.05
2019-04-25T19:35:36.977Z,99592.20
2019-04-25T19:38:07.780Z,99587.14
2019-04-25T19:40:55.812Z,99586.03
2019-04-25T19:43:44.932Z,99588.18
2019-04-25T19:46:17.979Z,99587.79
2019-04-25T19:48:49.074Z,99591.63
2019-04-25T19:51:20.178Z,99584.52
2019-04-25T19:53:55.107Z,99579.83
2019-04-25T19:56:37.350Z,99563.98
2019-04-25T19:59:10.401Z,99570.88
2019-04-25T20:01:42.607Z,99431.77
2019-04-25T20:04:37.077Z,99564.73
2019-04-25T20:07:20.798Z,99558.83
2019-04-25T20:10:08.733Z,99553.20
2019-04-25T20:12:51.324Z,99554.88
2019-04-25T20:15:20.372Z,99551.30
2019-04-25T20:17:55.110Z,99560.30
2019-04-25T20:20:27.808Z,99562.81
2019-04-25T20:22:59.730Z,99561.98
2019-04-25T20:25:31.974Z,99563.34
2019-04-25T20:28:03.582Z,99565.98
2019-04-25T20:30:35.604Z,99566.51
2019-04-25T20:33:07.175Z,99572.56
2019-04-25T20:35:38.263Z,99570.42
2019-04-25T20:38:10.477Z,99567.61
2019-04-25T20:40:42.467Z,99568.52
2019-04-25T20:43:14.990Z,99565.27
2019-04-25T20:45:48.040Z,99560.13
2019-04-25T20:48:19.589Z,99560.38
2019-04-25T20:50:52.380Z,99566.13
2019-04-25T20:53:24.211Z,99568.48
2019-04-25T20:55:55.412Z,99563.14
2019-04-25T20:58:30.682Z,99566.16
2019-04-25T21:01:04.363Z,99571.22
2019-04-25T21:03:36.070Z,99578.09
2019-04-25T21:06:20.286Z,99580.46
2019-04-25T21:08:51.886Z,99581.92
2019-04-25T21:11:23.238Z,99584.81
2019-04-25T21:14:10.738Z,99582.69
2019-04-25T21:16:58.761Z,99580.28
2019-04-25T21:19:32.041Z,99574.66
2019-04-25T21:22:05.478Z,99569.09
2019-04-25T21:24:35.689Z,99569.61
2019-04-25T21:27:14.654Z,99572.03
2019-04-25T21:29:45.818Z,99567.02
2019-04-25T21:32:18.505Z,99571.50
2019-04-25T21:34:49.223Z,99574.64
2019-04-25T21:37:20.022Z,99581.67
2019-04-25T21:39:59.903Z,99579.97
2019-04-25T21:42:56.228Z,99584.06
2019-04-25T21:45:27.792Z,99579.76
2019-04-25T21:47:58.770Z,99579.95
2019-04-25T21:50:29.928Z,99573.30
2019-04-25T21:53:02.364Z,99574.55
2019-04-25T21:55:34.517Z,99574.20
2019-04-25T21:58:05.570Z,99572.85
2019-04-25T22:00:55.516Z,99563.78
2019-04-25T22:03:28.184Z,99564.10
2019-04-25T22:05:59.077Z,99570.03
2019-04-25T22:08:30.091Z,99569.19
2019-04-25T22:11:01.304Z,99572.13
2019-04-25T22:13:34.146Z,99567.71
2019-04-25T22:16:05.941Z,99574.92
2019-04-25T22:18:37.031Z,99572.84
2019-04-25T22:21:08.651Z,99573.36
2019-04-25T22:23:44.463Z,99570.12
2019-04-25T22:26:15.324Z,99560.96
2019-04-25T22:28:46.168Z,99569.71
2019-04-25T22:31:21.401Z,99569.80
2019-04-25T22:34:13.886Z,99567.89
2019-04-25T22:36:44.753Z,99569.23
2019-04-25T22:39:15.973Z,99567.00
2019-04-25T22:41:48.717Z,99572.00
2019-04-25T22:44:22.814Z,99572.13
2019-04-25T22:46:53.801Z,99574.20
2019-04-25T22:49:24.865Z,99568.89
2019-04-25T22:51:55.918Z,99568.06
2019-04-25T22:54:28.119Z,99572.95
2019-04-25T22:56:58.789Z,99573.48
2019-04-25T22:59:30.585Z,99569.22
2019-04-25T23:02:11.807Z,99568.89
2019-04-25T23:05:04.620Z,99574.95
2019-04-25T23:07:26.460Z,99566.37
2019-04-25T23:09:57.718Z,99565.83
2019-04-25T23:12:35.153Z,99567.05
2019-04-25T23:15:06.907Z,99561.65
2019-04-25T23:17:38.458Z,99559.66
2019-04-25T23:20:09.712Z,99556.52
2019-04-25T23:22:41.260Z,99549.55
2019-04-25T23:25:14.747Z,99549.60
2019-04-25T23:28:05.240Z,99538.23
2019-04-25T23:31:00.138Z,99541.99
2019-04-25T23:33:30.985Z,99543.41
2019-04-25T23:36:02.137Z,99539.47
2019-04-25T23:38:33.854Z,99531.14
2019-04-25T23:41:05.911Z,99538.63
2019-04-25T23:43:37.007Z,99535.70
2019-04-25T23:46:08.272Z,99538.95
2019-04-25T23:48:39.415Z,99543.92
2019-04-25T23:51:11.532Z,99543.63
2019-04-25T23:53:43.406Z,99541.88
2019-04-25T23:56:15.269Z,99534.61
2019-04-25T23:58:46.290Z,99536.06
